createdAt,value
2023-02-15T07:16:30.247Z,41.50
2023-02-15T07:17:36.855Z,41.45
2023-02-15T07:19:49.559Z,41.49
2023-02-15T07:20:50.061Z,41.38
2023-02-15T07:21:49.368Z,41.32
2023-02-15T07:22:49.411Z,41.38
2023-02-15T07:23:49.628Z,41.21
2023-02-15T07:24:49.678Z,41.45
2023-02-15T07:25:49.371Z,41.08
2023-02-15T07:26:49.362Z,39.87
2023-02-15T07:27:49.381Z,39.06
2023-02-15T07:28:49.357Z,38.75
2023-02-15T07:29:49.311Z,38.25
2023-02-15T07:30:49.395Z,37.81
2023-02-15T07:31:49.360Z,37.36
2023-02-15T07:32:49.282Z,36.96
2023-02-15T07:33:49.310Z,36.02
2023-02-15T07:34:49.306Z,35.19
2023-02-15T07:35:49.295Z,34.99
2023-02-15T07:36:49.271Z,34.66
2023-02-15T07:37:49.316Z,35.03
2023-02-15T07:38:49.294Z,34.86
2023-02-15T07:39:49.222Z,34.61
2023-02-15T07:40:49.228Z,34.02
2023-02-15T07:41:49.233Z,33.00
2023-02-15T07:42:49.250Z,31.78
2023-02-15T07:43:49.233Z,31.43
2023-02-15T07:44:49.221Z,31.42
2023-02-15T07:45:49.211Z,31.48
2023-02-15T07:46:49.252Z,31.59
2023-02-15T07:47:49.204Z,31.34
2023-02-15T09:57:42.184Z,13.91
2023-02-15T09:58:54.832Z,13.24
2023-02-15T09:59:41.078Z,12.09
2023-02-15T10:00:42.164Z,12.28
2023-02-15T10:01:41.085Z,11.92
2023-02-15T10:02:40.761Z,11.95
2023-02-15T10:03:40.851Z,11.95
2023-02-15T10:06:01.377Z,11.99
2023-02-15T10:07:01.250Z,12.31
2023-02-15T10:08:00.870Z,12.57
2023-02-15T10:09:00.899Z,12.58
2023-02-15T10:10:00.838Z,13.12
2023-02-15T10:11:00.774Z,13.08
2023-02-15T10:12:00.765Z,13.87
2023-02-15T10:13:00.588Z,14.38
2023-02-15T10:20:39.305Z,14.99
2023-02-15T10:21:41.122Z,14.69
2023-02-15T10:22:39.337Z,15.43
2023-02-15T10:23:39.174Z,14.28
2023-02-15T10:24:45.539Z,15.01
2023-02-15T10:25:40.121Z,14.57
2023-02-15T10:26:39.404Z,14.27
2023-02-15T10:27:39.120Z,14.02
2023-02-15T10:28:39.117Z,13.72
2023-02-15T10:29:39.083Z,14.00
2023-02-15T10:30:39.261Z,14.23
2023-02-15T10:31:39.196Z,13.62
2023-02-15T10:32:39.038Z,14.58
2023-02-15T10:33:39.949Z,14.00
2023-02-15T10:34:39.100Z,14.09
2023-02-15T10:35:39.050Z,13.68
2023-02-15T10:36:39.121Z,14.38
2023-02-15T10:37:39.140Z,13.82
2023-02-15T10:38:39.154Z,14.11
2023-02-15T10:39:39.370Z,13.48
2023-02-15T10:41:58.609Z,13.75
2023-02-15T10:42:58.680Z,14.08
2023-02-15T10:43:58.964Z,14.26
2023-02-15T10:44:58.260Z,13.41
2023-02-15T10:45:58.360Z,13.33
2023-02-15T10:46:58.259Z,13.17
2023-02-15T10:47:58.201Z,13.82
2023-02-15T10:48:58.205Z,13.99
2023-02-15T10:49:58.397Z,13.86
2023-02-15T10:50:58.449Z,13.55
2023-02-15T10:51:58.310Z,14.19
2023-02-15T10:52:58.155Z,14.75
2023-02-15T10:53:58.244Z,13.62
2023-02-15T10:54:58.234Z,13.51
2023-02-15T10:55:58.127Z,13.31
2023-02-15T10:56:58.135Z,13.23
2023-02-15T10:58:00.289Z,13.65
2023-02-15T10:58:58.153Z,13.97
2023-02-15T10:59:58.092Z,13.42
2023-02-15T11:00:58.140Z,13.30
2023-02-15T11:01:58.172Z,13.76
2023-02-15T11:02:58.090Z,13.57
2023-02-15T11:03:58.214Z,13.41
2023-02-15T11:05:13.738Z,13.29
2023-02-15T11:05:58.809Z,14.35
2023-02-15T11:12:37.035Z,13.49
2023-02-15T11:13:37.869Z,13.18
2023-02-15T11:14:36.715Z,13.26
2023-02-15T11:15:36.578Z,12.98
2023-02-15T11:16:36.472Z,13.18
2023-02-15T11:17:36.598Z,13.41
2023-02-15T11:18:36.769Z,12.75
2023-02-15T11:19:36.404Z,12.72
2023-02-15T11:20:50.692Z,13.00
2023-02-15T11:21:36.633Z,12.80
2023-02-15T11:22:36.969Z,12.74
2023-02-15T11:23:37.639Z,12.86
2023-02-15T11:24:36.601Z,12.28
2023-02-15T11:25:36.796Z,12.93
2023-02-15T11:26:36.552Z,13.07
2023-02-15T11:27:36.645Z,12.86
2023-02-15T11:28:36.636Z,12.70
2023-02-15T11:29:36.642Z,12.25
2023-02-15T11:31:57.360Z,12.43
2023-02-15T11:38:34.595Z,12.59
2023-02-15T11:39:36.931Z,12.77
2023-02-15T11:40:34.497Z,12.34
2023-02-15T11:41:34.394Z,12.58
2023-02-15T11:42:34.405Z,13.75
2023-02-15T11:43:34.492Z,12.86
2023-02-15T11:44:34.652Z,13.35
2023-02-15T11:45:34.543Z,12.90
2023-02-15T12:01:34.337Z,11.78
2023-02-15T12:02:35.368Z,11.64
2023-02-15T12:03:34.299Z,11.39
2023-02-15T12:04:34.259Z,11.51
2023-02-15T12:05:34.231Z,11.79
2023-02-15T12:06:34.240Z,11.45
2023-02-15T12:07:34.221Z,12.22
2023-02-15T12:08:34.202Z,12.07
2023-02-15T12:09:34.261Z,11.80
2023-02-15T12:10:34.204Z,12.29
2023-02-15T12:11:34.194Z,12.75
2023-02-15T12:12:34.198Z,13.01
2023-02-15T12:13:34.199Z,12.50
2023-02-15T12:14:34.160Z,12.50
2023-02-15T12:15:34.156Z,11.84
2023-02-15T12:16:34.403Z,12.41
2023-02-15T12:17:34.227Z,12.07
2023-02-15T12:18:34.159Z,11.65
2023-02-15T12:19:34.155Z,11.53
2023-02-15T12:20:34.104Z,11.45
2023-02-15T12:21:34.119Z,11.35
2023-02-15T12:22:34.108Z,11.67
2023-02-15T12:23:34.168Z,12.99
2023-02-15T12:24:34.104Z,12.98
2023-02-15T12:25:34.132Z,11.16
2023-02-15T12:26:34.101Z,11.36
2023-02-15T12:27:34.145Z,11.61
2023-02-15T12:28:34.122Z,11.65
2023-02-15T12:29:34.184Z,11.22
2023-02-15T12:30:34.293Z,11.24
2023-02-15T12:31:34.487Z,11.52
2023-02-15T12:32:34.213Z,11.21
2023-02-15T12:33:34.258Z,11.54
2023-02-15T12:34:34.268Z,11.95
2023-02-15T12:35:34.307Z,11.88
2023-02-15T12:36:34.404Z,10.89
2023-02-15T12:37:34.303Z,10.97
2023-02-15T12:38:34.360Z,11.06
2023-02-15T12:39:34.711Z,10.86
2023-02-15T12:40:34.463Z,10.86
2023-02-15T12:41:34.517Z,11.11
2023-02-15T12:42:34.457Z,11.80
2023-02-15T12:43:34.537Z,10.80
2023-02-15T12:44:34.554Z,10.71
2023-02-15T12:45:34.543Z,11.16
2023-02-15T12:46:38.631Z,12.36
2023-02-15T12:47:35.062Z,11.28
2023-02-15T12:49:54.160Z,11.06
2023-02-15T12:50:55.013Z,10.88
2023-02-15T12:51:53.720Z,11.13
2023-02-15T12:52:53.626Z,11.20
2023-02-15T12:53:53.698Z,11.03
2023-02-15T12:56:13.309Z,11.00
2023-02-15T12:57:13.519Z,11.33
2023-02-15T12:58:13.044Z,11.42
2023-02-15T12:59:13.047Z,11.64
2023-02-15T13:00:13.032Z,11.67
2023-02-15T13:01:13.226Z,11.30
2023-02-15T13:02:13.024Z,11.15
2023-02-15T13:03:12.955Z,11.08
2023-02-15T13:04:13.083Z,10.88
2023-02-15T13:05:13.068Z,11.05
2023-02-15T13:06:12.920Z,12.36
2023-02-15T13:07:12.964Z,12.92
2023-02-15T13:08:12.984Z,11.70
2023-02-15T13:09:12.993Z,11.72
2023-02-15T13:10:13.152Z,11.30
2023-02-15T13:11:13.408Z,11.22
2023-02-15T13:12:12.906Z,12.30
2023-02-15T13:13:12.859Z,11.70
2023-02-15T13:14:12.955Z,11.25
2023-02-15T13:15:12.846Z,11.33
2023-02-15T13:16:12.949Z,11.08
2023-02-15T13:17:12.861Z,12.02
2023-02-15T13:18:12.871Z,11.22
2023-02-15T13:19:12.867Z,11.17
2023-02-15T13:20:13.778Z,11.03
2023-02-15T13:21:12.943Z,10.96
2023-02-15T13:22:12.868Z,11.20
2023-02-15T13:23:12.886Z,11.14
2023-02-15T13:24:12.900Z,11.03
2023-02-15T13:25:12.816Z,11.13
2023-02-15T13:26:12.813Z,11.76
2023-02-15T13:27:15.874Z,11.08
2023-02-15T13:28:12.786Z,11.00
2023-02-15T13:29:12.744Z,11.36
2023-02-15T13:30:12.982Z,11.14
2023-02-15T13:31:12.875Z,11.33
2023-02-15T13:32:12.866Z,11.13
2023-02-15T13:33:12.774Z,11.57
2023-02-15T13:34:12.717Z,11.60
2023-02-15T13:35:12.783Z,11.23
2023-02-15T13:36:12.781Z,11.29
2023-02-15T13:37:12.737Z,11.27
2023-02-15T13:38:12.695Z,11.56
2023-02-15T13:39:12.713Z,11.73
2023-02-15T13:40:12.776Z,12.19
2023-02-15T13:41:12.713Z,12.08
2023-02-15T13:42:12.725Z,11.73
2023-02-15T13:43:12.673Z,11.49
2023-02-15T13:44:12.755Z,11.38
2023-02-15T13:45:12.747Z,11.92
2023-02-15T13:46:12.754Z,11.81
2023-02-15T13:47:12.752Z,11.45
2023-02-15T13:48:12.682Z,11.91
2023-02-15T13:49:12.684Z,12.81
2023-02-15T13:58:13.434Z,11.52
2023-02-15T13:59:27.818Z,11.25
2023-02-15T14:01:33.240Z,11.39
2023-02-15T14:29:31.402Z,11.66
2023-02-15T14:30:30.667Z,11.75
2023-02-15T14:31:31.161Z,11.97
2023-02-15T14:32:31.023Z,11.90
2023-02-15T14:33:32.710Z,11.70
2023-02-15T14:34:30.431Z,12.38
2023-02-15T14:35:30.414Z,12.47
2023-02-15T14:36:30.435Z,12.29
2023-02-15T14:37:30.910Z,12.48
2023-02-15T14:38:30.354Z,12.44
2023-02-15T14:39:30.435Z,12.71
2023-02-15T14:40:30.360Z,12.92
2023-02-15T14:41:31.080Z,12.84
2023-02-15T14:42:30.333Z,13.47
2023-02-15T14:43:30.338Z,13.26
2023-02-15T14:44:30.698Z,13.15
2023-02-15T14:45:33.292Z,13.88
2023-02-15T14:46:30.952Z,13.17
2023-02-15T14:47:30.314Z,12.74
2023-02-15T14:48:30.323Z,12.79
2023-02-15T14:49:30.755Z,12.93
2023-02-15T14:50:30.293Z,12.88
2023-02-15T14:51:30.315Z,12.82
2023-02-15T14:52:30.767Z,12.83
2023-02-15T14:53:30.829Z,12.97
2023-02-15T14:54:30.320Z,12.91
2023-02-15T14:55:30.369Z,12.99
2023-02-15T14:56:30.300Z,13.44
2023-02-15T14:57:32.454Z,13.78
2023-02-15T14:58:30.253Z,13.90
2023-02-15T14:59:30.277Z,13.12
2023-02-15T15:00:30.257Z,13.47
2023-02-15T15:01:30.248Z,13.64
2023-02-15T15:02:30.192Z,14.59
2023-02-15T15:03:30.227Z,13.75
2023-02-15T15:04:30.210Z,13.96
2023-02-15T15:05:30.195Z,13.82
2023-02-15T15:06:30.201Z,13.84
2023-02-15T15:07:30.214Z,14.07
2023-02-15T15:08:30.177Z,13.89
2023-02-15T15:47:58.748Z,17.17
2023-02-15T15:48:50.887Z,17.08
2023-02-15T15:49:49.924Z,17.21
2023-02-15T15:50:49.841Z,17.17
2023-02-15T15:51:49.786Z,17.27
2023-02-15T15:52:49.767Z,17.38
2023-02-15T15:53:49.810Z,17.47
2023-02-15T15:54:49.749Z,17.47
2023-02-15T15:55:49.766Z,17.67
2023-02-15T15:56:49.746Z,18.33
2023-02-15T15:57:49.789Z,18.09
2023-02-15T15:58:49.799Z,18.20
2023-02-15T15:59:49.861Z,18.20
2023-02-15T16:00:49.921Z,18.20
2023-02-15T16:01:50.077Z,18.20
2023-02-15T16:02:50.142Z,18.32
2023-02-15T16:03:50.048Z,18.55
2023-02-15T16:04:50.064Z,18.73
2023-02-15T16:05:50.083Z,18.84
2023-02-15T19:00:46.314Z,34.36
2023-02-15T19:03:06.644Z,33.29
2023-02-15T19:04:06.309Z,33.68
2023-02-15T19:05:06.956Z,33.08
2023-02-15T19:06:06.262Z,33.38
2023-02-15T19:07:06.224Z,33.74
2023-02-15T19:08:06.223Z,33.98
2023-02-15T19:09:06.253Z,34.05
2023-02-15T19:10:06.187Z,34.01
2023-02-15T19:11:06.196Z,32.83
2023-02-15T19:12:06.239Z,33.29
2023-02-15T19:13:06.198Z,32.55
2023-02-15T19:14:06.172Z,31.57
2023-02-15T19:15:06.175Z,31.11
2023-02-15T19:18:46.659Z,32.47
2023-02-15T19:19:47.636Z,32.30
2023-02-15T19:20:46.727Z,31.44
2023-02-15T19:21:45.886Z,31.80
2023-02-15T19:22:45.888Z,31.32
2023-02-15T19:23:45.986Z,30.37
2023-02-15T19:24:45.853Z,32.03
2023-02-15T19:25:45.954Z,31.03
2023-02-15T19:26:46.232Z,31.54
2023-02-15T19:27:45.926Z,31.54
2023-02-15T19:28:45.953Z,31.05
2023-02-15T19:29:45.961Z,30.92
2023-02-15T19:30:45.944Z,31.48
2023-02-15T19:31:46.037Z,30.62
2023-02-15T19:32:45.825Z,30.14
2023-02-15T19:33:45.902Z,30.47
2023-02-15T19:34:46.014Z,31.19
2023-02-15T19:35:46.837Z,30.94
2023-02-15T19:36:45.827Z,30.79
2023-02-15T19:37:45.928Z,30.22
2023-02-15T19:38:45.882Z,30.01
2023-02-15T19:39:45.780Z,30.38
2023-02-15T19:40:45.900Z,31.42
2023-02-15T19:41:45.858Z,30.89
2023-02-15T19:42:45.686Z,30.75
2023-02-15T19:43:46.881Z,30.17
2023-02-15T19:44:46.807Z,29.87
2023-02-15T19:45:45.788Z,30.67
2023-02-15T19:46:45.792Z,30.56
2023-02-15T19:47:45.743Z,30.58
2023-02-15T19:50:05.668Z,31.71
2023-02-15T19:51:06.571Z,31.96
2023-02-15T19:52:05.577Z,31.03
2023-02-15T19:53:05.588Z,30.44
2023-02-15T19:54:05.528Z,30.60
2023-02-15T19:55:05.540Z,30.68
2023-02-15T19:56:05.851Z,31.69
2023-02-15T19:57:05.554Z,32.19
2023-02-15T19:58:05.573Z,32.04
2023-02-15T19:59:05.502Z,31.88
2023-02-15T20:00:20.858Z,31.62
2023-02-15T20:01:07.005Z,31.86
2023-02-15T20:02:05.568Z,31.38
2023-02-15T20:03:05.483Z,32.11
2023-02-15T20:04:05.509Z,32.14
2023-02-15T20:05:05.593Z,31.93
2023-02-15T20:06:05.485Z,32.96
2023-02-15T20:07:05.596Z,33.68
2023-02-15T20:10:46.166Z,30.73
2023-02-15T20:11:45.541Z,30.39
2023-02-15T20:12:44.935Z,30.51
2023-02-15T20:13:45.053Z,31.07
2023-02-15T20:14:44.913Z,32.11
2023-02-15T20:15:46.006Z,31.87
2023-02-15T20:16:44.863Z,32.13
2023-02-15T20:17:44.800Z,31.88
2023-02-15T20:18:44.877Z,31.72
2023-02-15T20:21:05.427Z,31.68
2023-02-15T20:22:04.960Z,31.65
2023-02-15T20:23:05.426Z,32.09
2023-02-15T20:24:05.182Z,31.40
2023-02-15T20:25:04.842Z,30.99
2023-02-15T20:26:04.813Z,32.01
2023-02-15T20:30:24.850Z,32.44
2023-02-15T20:34:24.695Z,32.15
2023-02-15T20:37:34.241Z,32.60
2023-02-15T20:39:54.489Z,34.01
2023-02-15T20:40:54.294Z,33.83
2023-02-15T20:41:55.135Z,33.30
2023-02-15T20:42:54.071Z,33.32
2023-02-15T20:43:54.055Z,34.20
2023-02-15T20:44:54.138Z,33.66
2023-02-15T20:45:54.077Z,33.72
2023-02-15T20:46:54.135Z,34.03
2023-02-15T20:47:54.028Z,33.77
2023-02-15T20:48:54.008Z,32.72
2023-02-15T20:49:53.987Z,32.70
2023-02-15T20:50:54.024Z,32.65
2023-02-15T20:51:53.988Z,34.00
2023-02-15T20:52:53.943Z,34.07
2023-02-15T20:55:13.895Z,33.64
2023-02-15T20:56:13.814Z,34.14
2023-02-15T20:57:14.033Z,33.89
2023-02-15T20:58:13.820Z,33.67
2023-02-15T20:59:13.857Z,33.30
2023-02-15T21:00:13.830Z,34.44
2023-02-15T21:01:14.116Z,33.73
2023-02-15T21:02:14.073Z,33.71
2023-02-15T21:03:13.792Z,33.37
2023-02-15T21:04:13.915Z,33.19
2023-02-15T21:05:13.815Z,33.14
2023-02-15T21:06:13.790Z,33.65
2023-02-15T21:07:13.767Z,34.32
2023-02-15T21:08:13.870Z,34.34
2023-02-15T21:09:13.795Z,34.56
2023-02-15T21:10:13.862Z,35.18
2023-02-15T21:11:13.911Z,34.76
2023-02-15T21:12:14.046Z,34.40
2023-02-15T21:13:14.045Z,35.17
2023-02-15T21:14:14.030Z,34.67
2023-02-15T21:15:14.092Z,34.16
2023-02-15T21:16:14.304Z,34.39
2023-02-15T21:17:14.334Z,35.38
2023-02-15T21:18:14.290Z,34.22
2023-02-15T21:19:14.271Z,33.72
2023-02-15T21:20:14.373Z,33.73
2023-02-15T21:21:14.378Z,33.76
2023-02-15T21:22:14.307Z,33.87
2023-02-15T21:23:14.314Z,33.45
2023-02-15T21:24:14.327Z,33.40
2023-02-15T21:25:14.367Z,33.24
2023-02-15T21:26:14.424Z,35.02
2023-02-15T21:27:14.398Z,34.14
2023-02-15T21:28:14.346Z,34.80
2023-02-15T21:29:14.373Z,33.59
2023-02-15T21:30:14.450Z,33.43
2023-02-15T21:31:14.576Z,33.14
2023-02-15T21:33:35.682Z,33.31
2023-02-15T21:34:36.544Z,33.77
2023-02-15T21:35:35.555Z,34.16
2023-02-15T21:36:36.098Z,33.97
2023-02-15T21:38:55.358Z,34.60
2023-02-15T21:41:16.238Z,34.30
2023-02-15T21:42:14.984Z,34.02
2023-02-15T21:43:14.549Z,33.81
2023-02-15T21:44:14.621Z,33.71
2023-02-15T21:45:14.660Z,33.80
2023-02-15T21:46:15.537Z,34.38
2023-02-15T21:47:14.400Z,33.99
2023-02-15T21:49:34.984Z,34.59
2023-02-15T21:50:35.107Z,34.71
2023-02-15T21:51:34.445Z,34.34
2023-02-15T21:52:34.478Z,34.85
2023-02-15T21:53:34.505Z,34.15
2023-02-15T21:54:34.433Z,34.27
2023-02-15T21:55:34.441Z,34.08
2023-02-15T21:56:34.524Z,34.07
2023-02-15T21:57:34.433Z,34.33
2023-02-15T21:58:34.401Z,34.69
2023-02-15T21:59:34.398Z,34.75
2023-02-15T22:00:34.500Z,34.46
2023-02-15T22:01:34.355Z,34.27
2023-02-15T22:02:34.356Z,33.98
2023-02-15T22:03:34.350Z,34.02
2023-02-15T22:04:34.361Z,34.13
2023-02-15T22:05:34.350Z,33.95
2023-02-15T22:06:34.359Z,34.01
2023-02-15T22:07:34.660Z,33.99
2023-02-15T22:08:34.470Z,33.93
2023-02-15T22:09:34.298Z,33.92
2023-02-15T22:10:34.333Z,33.85
2023-02-15T22:11:34.305Z,33.78
2023-02-15T22:12:34.311Z,33.91
2023-02-15T22:13:34.324Z,33.96
2023-02-15T22:14:34.301Z,33.98
2023-02-15T22:15:34.325Z,34.20
2023-02-15T22:16:34.336Z,34.81
2023-02-15T22:17:34.257Z,34.79
2023-02-15T22:18:34.365Z,35.11
2023-02-15T22:19:34.235Z,34.61
2023-02-15T22:20:34.238Z,34.51
2023-02-15T22:21:34.259Z,34.32
2023-02-15T22:22:34.258Z,34.65
2023-02-15T22:23:34.380Z,34.65
2023-02-15T22:24:34.353Z,35.46
2023-02-15T22:25:34.468Z,35.06
2023-02-15T23:26:51.423Z,36.21
2023-02-15T23:39:35.029Z,37.02
2023-02-15T23:40:34.997Z,36.67
2023-02-15T23:41:35.010Z,36.46
2023-02-15T23:42:35.023Z,36.58
2023-02-15T23:43:34.979Z,36.23
2023-02-15T23:44:34.991Z,36.34
2023-02-15T23:45:34.963Z,36.19
2023-02-15T23:46:34.935Z,36.63
2023-02-15T23:47:34.952Z,36.80
2023-02-15T23:50:55.332Z,36.88
